sensor_id;sensor_type;location;lat;lon;timestamp;pressure;altitude;pressure_sealevel;temperature;humidity
44765;BME280;30484;52.382;5.260;2023-03-04T00:00:31;102794.22;;;9.40;100.00
44765;BME280;30484;52.382;5.260;2023-03-04T00:03:00;102801.22;;;9.47;100.00
44765;BME280;30484;52.382;5.260;2023-03-04T00:05:28;102800.25;;;9.53;100.00
44765;BME280;30484;52.382;5.260;2023-03-04T00:07:57;102797.69;;;9.46;100.00
44765;BME280;30484;52.382;5.260;2023-03-04T00:10:27;102804.28;;;9.18;100.00
44765;BME280;30484;52.382;5.260;2023-03-04T00:12:55;102797.00;;;9.32;100.00
44765;BME280;30484;52.382;5.260;2023-03-04T00:15:23;102796.28;;;9.21;100.00
44765;BME280;30484;52.382;5.260;2023-03-04T00:17:52;102798.50;;;8.83;100.00
44765;BME280;30484;52.382;5.260;2023-03-04T00:20:21;102796.69;;;9.54;100.00
44765;BME280;30484;52.382;5.260;2023-03-04T00:22:49;102799.78;;;9.23;100.00
44765;BME280;30484;52.382;5.260;2023-03-04T00:25:17;102796.75;;;9.50;100.00
44765;BME280;30484;52.382;5.260;2023-03-04T00:27:47;102787.97;;;9.42;100.00
44765;BME280;30484;52.382;5.260;2023-03-04T00:30:15;102790.00;;;9.22;100.00
44765;BME280;30484;52.382;5.260;2023-03-04T00:32:44;102795.88;;;9.48;100.00
44765;BME280;30484;52.382;5.260;2023-03-04T00:35:12;102791.56;;;9.40;100.00
44765;BME280;30484;52.382;5.260;2023-03-04T00:37:40;102796.88;;;9.41;100.00
44765;BME280;30484;52.382;5.260;2023-03-04T00:40:10;102798.63;;;9.42;100.00
44765;BME280;30484;52.382;5.260;2023-03-04T00:42:38;102803.97;;;9.42;100.00
44765;BME280;30484;52.382;5.260;2023-03-04T00:45:09;102788.00;;;9.39;100.00
44765;BME280;30484;52.382;5.260;2023-03-04T00:47:37;102788.81;;;9.44;100.00
44765;BME280;30484;52.382;5.260;2023-03-04T00:50:07;102790.88;;;9.24;100.00
44765;BME280;30484;52.382;5.260;2023-03-04T00:52:35;102800.31;;;8.81;100.00
44765;BME280;30484;52.382;5.260;2023-03-04T00:55:05;102805.13;;;9.23;100.00
44765;BME280;30484;52.382;5.260;2023-03-04T00:57:34;102797.97;;;9.25;100.00
44765;BME280;30484;52.382;5.260;2023-03-04T01:00:03;102803.72;;;9.61;100.00
44765;BME280;30484;52.382;5.260;2023-03-04T01:02:33;102798.44;;;9.58;100.00
44765;BME280;30484;52.382;5.260;2023-03-04T01:05:01;102797.53;;;9.56;100.00
44765;BME280;30484;52.382;5.260;2023-03-04T01:07:31;102801.97;;;9.58;100.00
44765;BME280;30484;52.382;5.260;2023-03-04T01:10:00;102796.78;;;9.46;100.00
44765;BME280;30484;52.382;5.260;2023-03-04T01:12:28;102808.38;;;9.45;100.00
44765;BME280;30484;52.382;5.260;2023-03-04T01:14:56;102801.22;;;9.47;100.00
44765;BME280;30484;52.382;5.260;2023-03-04T01:17:25;102793.25;;;9.45;100.00
44765;BME280;30484;52.382;5.260;2023-03-04T01:19:55;102798.63;;;9.42;100.00
44765;BME280;30484;52.382;5.260;2023-03-04T01:22:23;102792.81;;;9.76;100.00
44765;BME280;30484;52.382;5.260;2023-03-04T01:24:52;102794.81;;;8.92;100.00
44765;BME280;30484;52.382;5.260;2023-03-04T01:27:20;102782.31;;;9.64;100.00
44765;BME280;30484;52.382;5.260;2023-03-04T01:29:48;102786.25;;;9.38;100.00
44765;BME280;30484;52.382;5.260;2023-03-04T01:32:17;102792.69;;;9.22;100.00
44765;BME280;30484;52.382;5.260;2023-03-04T01:34:45;102785.56;;;9.24;100.00
44765;BME280;30484;52.382;5.260;2023-03-04T01:37:15;102780.09;;;9.31;100.00
44765;BME280;30484;52.382;5.260;2023-03-04T01:39:43;102779.09;;;9.39;100.00
44765;BME280;30484;52.382;5.260;2023-03-04T01:42:14;102775.75;;;9.24;100.00
44765;BME280;30484;52.382;5.260;2023-03-04T01:44:44;102780.75;;;9.47;100.00
44765;BME280;30484;52.382;5.260;2023-03-04T01:47:13;102778.91;;;9.53;100.00
44765;BME280;30484;52.382;5.260;2023-03-04T01:49:41;102776.13;;;8.98;100.00
44765;BME280;30484;52.382;5.260;2023-03-04T01:52:10;102768.34;;;9.46;100.00
44765;BME280;30484;52.382;5.260;2023-03-04T01:54:40;102774.28;;;9.65;100.00
44765;BME280;30484;52.382;5.260;2023-03-04T01:57:15;102764.78;;;9.46;100.00
44765;BME280;30484;52.382;5.260;2023-03-04T01:59:44;102764.78;;;9.46;100.00
44765;BME280;30484;52.382;5.260;2023-03-04T02:02:13;102772.00;;;9.39;100.00
44765;BME280;30484;52.382;5.260;2023-03-04T02:04:41;102768.38;;;9.45;100.00
44765;BME280;30484;52.382;5.260;2023-03-04T02:07:10;102759.50;;;9.41;100.00
44765;BME280;30484;52.382;5.260;2023-03-04T02:09:38;102754.19;;;9.41;100.00
44765;BME280;30484;52.382;5.260;2023-03-04T02:12:09;102758.81;;;9.28;100.00
44765;BME280;30484;52.382;5.260;2023-03-04T02:14:38;102744.03;;;9.04;100.00
44765;BME280;30484;52.382;5.260;2023-03-04T02:17:09;102740.22;;;9.24;100.00
44765;BME280;30484;52.382;5.260;2023-03-04T02:19:41;102741.06;;;9.26;100.00
44765;BME280;30484;52.382;5.260;2023-03-04T02:22:13;102737.28;;;9.42;100.00
44765;BME280;30484;52.382;5.260;2023-03-04T02:24:44;102724.88;;;9.38;100.00
44765;BME280;30484;52.382;5.260;2023-03-04T02:27:14;102744.44;;;9.39;100.00
44765;BME280;30484;52.382;5.260;2023-03-04T02:29:43;102733.41;;;9.60;100.00
44765;BME280;30484;52.382;5.260;2023-03-04T02:32:13;102725.69;;;9.45;100.00
44765;BME280;30484;52.382;5.260;2023-03-04T02:34:45;102723.00;;;9.45;100.00
44765;BME280;30484;52.382;5.260;2023-03-04T02:37:15;102722.69;;;9.04;100.00
44765;BME280;30484;52.382;5.260;2023-03-04T02:39:45;102708.94;;;9.35;100.00
44765;BME280;30484;52.382;5.260;2023-03-04T02:42:16;102713.16;;;9.48;100.00
44765;BME280;30484;52.382;5.260;2023-03-04T02:44:46;102705.34;;;9.35;100.00
44765;BME280;30484;52.382;5.260;2023-03-04T02:47:17;102707.19;;;9.32;100.00
44765;BME280;30484;52.382;5.260;2023-03-04T02:49:45;102699.31;;;9.22;100.00
44765;BME280;30484;52.382;5.260;2023-03-04T02:52:16;102711.06;;;9.10;100.00
44765;BME280;30484;52.382;5.260;2023-03-04T02:54:45;102709.28;;;9.09;100.00
44765;BME280;30484;52.382;5.260;2023-03-04T02:57:15;102709.81;;;9.34;100.00
44765;BME280;30484;52.382;5.260;2023-03-04T02:59:44;102707.88;;;9.45;100.00
44765;BME280;30484;52.382;5.260;2023-03-04T03:02:12;102712.88;;;9.08;100.00
44765;BME280;30484;52.382;5.260;2023-03-04T03:04:41;102698.47;;;9.21;100.00
44765;BME280;30484;52.382;5.260;2023-03-04T03:07:09;102700.75;;;8.82;100.00
44765;BME280;30484;52.382;5.260;2023-03-04T03:09:38;102700.78;;;8.84;100.00
44765;BME280;30484;52.382;5.260;2023-03-04T03:12:07;102696.19;;;8.92;100.00
44765;BME280;30484;52.382;5.260;2023-03-04T03:14:37;102687.00;;;9.14;100.00
44765;BME280;30484;52.382;5.260;2023-03-04T03:17:05;102693.78;;;9.37;100.00
44765;BME280;30484;52.382;5.260;2023-03-04T03:19:34;102688.03;;;9.04;100.00
44765;BME280;30484;52.382;5.260;2023-03-04T03:22:02;102689.13;;;8.88;100.00
44765;BME280;30484;52.382;5.260;2023-03-04T03:24:31;102680.38;;;8.79;100.00
44765;BME280;30484;52.382;5.260;2023-03-04T03:26:59;102688.78;;;9.14;100.00
44765;BME280;30484;52.382;5.260;2023-03-04T03:29:28;102692.38;;;9.11;100.00
44765;BME280;30484;52.382;5.260;2023-03-04T03:31:59;102682.63;;;9.09;100.00
44765;BME280;30484;52.382;5.260;2023-03-04T03:34:28;102677.16;;;9.20;100.00
44765;BME280;30484;52.382;5.260;2023-03-04T03:36:57;102677.16;;;9.20;100.00
44765;BME280;30484;52.382;5.260;2023-03-04T03:39:25;102686.00;;;9.22;100.00
44765;BME280;30484;52.382;5.260;2023-03-04T03:41:53;102689.25;;;9.42;100.00
44765;BME280;30484;52.382;5.260;2023-03-04T03:44:22;102685.56;;;9.51;100.00
44765;BME280;30484;52.382;5.260;2023-03-04T03:46:50;102687.63;;;9.33;100.00
44765;BME280;30484;52.382;5.260;2023-03-04T03:49:20;102675.22;;;9.29;100.00
44765;BME280;30484;52.382;5.260;2023-03-04T03:51:48;102682.16;;;9.41;100.00
44765;BME280;30484;52.382;5.260;2023-03-04T03:54:16;102681.59;;;9.21;100.00
44765;BME280;30484;52.382;5.260;2023-03-04T03:56:45;102682.56;;;9.15;100.00
44765;BME280;30484;52.382;5.260;2023-03-04T03:59:13;102685.94;;;9.26;100.00
44765;BME280;30484;52.382;5.260;2023-03-04T04:01:42;102691.66;;;9.00;100.00
44765;BME280;30484;52.382;5.260;2023-03-04T04:04:10;102685.09;;;9.23;100.00
44765;BME280;30484;52.382;5.260;2023-03-04T04:06:41;102681.88;;;8.99;100.00
44765;BME280;30484;52.382;5.260;2023-03-04T04:09:09;102686.41;;;8.94;100.00
44765;BME280;30484;52.382;5.260;2023-03-04T04:11:38;102680.66;;;9.22;100.00
44765;BME280;30484;52.382;5.260;2023-03-04T04:14:07;102683.94;;;9.41;100.00
44765;BME280;30484;52.382;5.260;2023-03-04T04:16:36;102687.84;;;9.18;100.00
44765;BME280;30484;52.382;5.260;2023-03-04T04:19:04;102674.19;;;8.76;100.00
44765;BME280;30484;52.382;5.260;2023-03-04T04:21:33;102679.25;;;8.96;100.00
44765;BME280;30484;52.382;5.260;2023-03-04T04:24:02;102677.34;;;9.06;100.00
44765;BME280;30484;52.382;5.260;2023-03-04T04:26:31;102675.84;;;9.45;100.00
44765;BME280;30484;52.382;5.260;2023-03-04T04:28:59;102681.53;;;9.24;100.00
44765;BME280;30484;52.382;5.260;2023-03-04T04:31:28;102671.88;;;9.17;100.00
44765;BME280;30484;52.382;5.260;2023-03-04T04:33:56;102668.81;;;8.79;100.00
44765;BME280;30484;52.382;5.260;2023-03-04T04:36:24;102671.19;;;9.02;100.00
44765;BME280;30484;52.382;5.260;2023-03-04T04:38:53;102674.69;;;9.04;100.00
44765;BME280;30484;52.382;5.260;2023-03-04T04:41:26;102675.81;;;8.89;100.00
44765;BME280;30484;52.382;5.260;2023-03-04T04:43:55;102678.25;;;9.03;100.00
44765;BME280;30484;52.382;5.260;2023-03-04T04:46:24;102669.28;;;9.09;100.00
44765;BME280;30484;52.382;5.260;2023-03-04T04:48:52;102677.38;;;9.04;100.00
44765;BME280;30484;52.382;5.260;2023-03-04T04:51:21;102671.44;;;8.82;100.00
44765;BME280;30484;52.382;5.260;2023-03-04T04:53:49;102681.59;;;9.21;100.00
44765;BME280;30484;52.382;5.260;2023-03-04T04:56:20;102681.13;;;8.91;100.00
44765;BME280;30484;52.382;5.260;2023-03-04T04:58:50;102672.59;;;8.62;100.00
44765;BME280;30484;52.382;5.260;2023-03-04T05:01:19;102675.06;;;8.79;100.00
44765;BME280;30484;52.382;5.260;2023-03-04T05:03:48;102673.16;;;8.86;100.00
44765;BME280;30484;52.382;5.260;2023-03-04T05:06:19;102672.19;;;8.93;100.00
44765;BME280;30484;52.382;5.260;2023-03-04T05:08:47;102667.53;;;9.09;100.00
44765;BME280;30484;52.382;5.260;2023-03-04T05:11:16;102672.88;;;9.06;100.00
44765;BME280;30484;52.382;5.260;2023-03-04T05:13:45;102671.03;;;9.11;100.00
44765;BME280;30484;52.382;5.260;2023-03-04T05:16:15;102674.47;;;9.20;100.00
44765;BME280;30484;52.382;5.260;2023-03-04T05:18:45;102676.88;;;8.74;100.00
44765;BME280;30484;52.382;5.260;2023-03-04T05:21:13;102679.44;;;8.85;100.00
44765;BME280;30484;52.382;5.260;2023-03-04T05:23:43;102674.09;;;8.85;100.00
44765;BME280;30484;52.382;5.260;2023-03-04T05:26:13;102677.34;;;9.06;100.00
44765;BME280;30484;52.382;5.260;2023-03-04T05:28:42;102678.53;;;8.83;100.00
44765;BME280;30484;52.382;5.260;2023-03-04T05:31:10;102672.00;;;9.06;100.00
44765;BME280;30484;52.382;5.260;2023-03-04T05:33:40;102679.81;;;9.20;100.00
44765;BME280;30484;52.382;5.260;2023-03-04T05:36:09;102673.97;;;8.93;100.00
44765;BME280;30484;52.382;5.260;2023-03-04T05:38:37;102681.84;;;9.04;100.00
44765;BME280;30484;52.382;5.260;2023-03-04T05:41:06;102679.63;;;9.32;100.00
44765;BME280;30484;52.382;5.260;2023-03-04T05:43:35;102677.72;;;8.79;100.00
44765;BME280;30484;52.382;5.260;2023-03-04T05:46:04;102677.91;;;9.28;100.00
44765;BME280;30484;52.382;5.260;2023-03-04T05:48:32;102685.66;;;8.83;100.00
44765;BME280;30484;52.382;5.260;2023-03-04T05:51:02;102677.28;;;9.09;100.00
44765;BME280;30484;52.382;5.260;2023-03-04T05:53:30;102684.00;;;9.36;100.00
44765;BME280;30484;52.382;5.260;2023-03-04T05:55:59;102684.72;;;8.87;100.00
44765;BME280;30484;52.382;5.260;2023-03-04T05:58:33;102679.47;;;8.80;100.00
44765;BME280;30484;52.382;5.260;2023-03-04T06:01:02;102685.28;;;9.10;100.00
44765;BME280;30484;52.382;5.260;2023-03-04T06:03:32;102687.75;;;9.23;100.00
44765;BME280;30484;52.382;5.260;2023-03-04T06:06:02;102681.53;;;9.24;100.00
44765;BME280;30484;52.382;5.260;2023-03-04T06:08:30;102683.78;;;8.91;100.00
44765;BME280;30484;52.382;5.260;2023-03-04T06:10:59;102675.69;;;8.97;100.00
44765;BME280;30484;52.382;5.260;2023-03-04T06:13:27;102678.91;;;8.57;100.00
44765;BME280;30484;52.382;5.260;2023-03-04T06:15:56;102679.88;;;8.50;100.00
44765;BME280;30484;52.382;5.260;2023-03-04T06:18:26;102682.69;;;8.34;100.00
44765;BME280;30484;52.382;5.260;2023-03-04T06:20:55;102678.72;;;8.69;100.00
44765;BME280;30484;52.382;5.260;2023-03-04T06:23:27;102671.34;;;8.90;100.00
44765;BME280;30484;52.382;5.260;2023-03-04T06:25:57;102677.03;;;8.62;100.00
44765;BME280;30484;52.382;5.260;2023-03-04T06:28:31;102684.63;;;8.93;100.00
44765;BME280;30484;52.382;5.260;2023-03-04T06:30:59;102678.66;;;8.75;100.00
44765;BME280;30484;52.382;5.260;2023-03-04T06:33:33;102695.91;;;8.40;100.00
44765;BME280;30484;52.382;5.260;2023-03-04T06:36:02;102693.00;;;8.65;100.00
44765;BME280;30484;52.382;5.260;2023-03-04T06:38:32;102686.16;;;8.39;100.00
44765;BME280;30484;52.382;5.260;2023-03-04T06:41:05;102691.47;;;8.39;100.00
44765;BME280;30484;52.382;5.260;2023-03-04T06:43:37;102691.13;;;8.72;100.00
44765;BME280;30484;52.382;5.260;2023-03-04T06:46:06;102692.78;;;8.80;100.00
44765;BME280;30484;52.382;5.260;2023-03-04T06:48:35;102693.38;;;9.04;100.00
44765;BME280;30484;52.382;5.260;2023-03-04T06:51:05;102694.47;;;8.89;100.00
44765;BME280;30484;52.382;5.260;2023-03-04T06:53:35;102696.44;;;8.73;100.00
44765;BME280;30484;52.382;5.260;2023-03-04T06:56:06;102697.31;;;8.75;100.00
44765;BME280;30484;52.382;5.260;2023-03-04T06:58:34;102701.97;;;8.56;100.00
44765;BME280;30484;52.382;5.260;2023-03-04T07:01:13;102703.97;;;9.07;100.00
44765;BME280;30484;52.382;5.260;2023-03-04T07:03:42;102704.34;;;8.81;100.00
44765;BME280;30484;52.382;5.260;2023-03-04T07:06:13;102704.94;;;9.03;100.00
44765;BME280;30484;52.382;5.260;2023-03-04T07:08:43;102701.38;;;9.04;100.00
44765;BME280;30484;52.382;5.260;2023-03-04T07:11:12;102701.31;;;9.07;100.00
44765;BME280;30484;52.382;5.260;2023-03-04T07:13:41;102697.03;;;8.97;100.00
44765;BME280;30484;52.382;5.260;2023-03-04T07:16:10;102699.00;;;8.83;100.00
44765;BME280;30484;52.382;5.260;2023-03-04T07:18:39;102697.97;;;8.93;100.00
44765;BME280;30484;52.382;5.260;2023-03-04T07:21:08;102705.66;;;9.14;100.00
44765;BME280;30484;52.382;5.260;2023-03-04T07:23:36;102711.97;;;9.07;100.00
44765;BME280;30484;52.382;5.260;2023-03-04T07:26:06;102699.00;;;9.43;100.00
44765;BME280;30484;52.382;5.260;2023-03-04T07:28:35;102706.13;;;9.43;100.00
44765;BME280;30484;52.382;5.260;2023-03-04T07:31:08;102712.44;;;9.37;100.00
44765;BME280;30484;52.382;5.260;2023-03-04T07:33:36;102718.19;;;9.09;100.00
44765;BME280;30484;52.382;5.260;2023-03-04T07:36:05;102711.38;;;9.47;100.00
44765;BME280;30484;52.382;5.260;2023-03-04T07:38:33;102718.66;;;9.36;100.00
44765;BME280;30484;52.382;5.260;2023-03-04T07:41:02;102717.06;;;9.26;100.00
44765;BME280;30484;52.382;5.260;2023-03-04T07:43:31;102722.91;;;8.89;100.00
44765;BME280;30484;52.382;5.260;2023-03-04T07:46:00;102725.25;;;9.12;100.00
44765;BME280;30484;52.382;5.260;2023-03-04T07:48:30;102715.81;;;9.48;100.00
44765;BME280;30484;52.382;5.260;2023-03-04T07:51:07;102719.66;;;9.32;100.00
44765;BME280;30484;52.382;5.260;2023-03-04T07:53:39;102722.97;;;9.48;100.00
44765;BME280;30484;52.382;5.260;2023-03-04T07:56:10;102717.50;;;9.54;100.00
44765;BME280;30484;52.382;5.260;2023-03-04T07:58:40;102722.38;;;9.26;100.00
44765;BME280;30484;52.382;5.260;2023-03-04T08:01:10;102724.00;;;9.39;100.00
44765;BME280;30484;52.382;5.260;2023-03-04T08:03:38;102722.03;;;9.50;100.00
44765;BME280;30484;52.382;5.260;2023-03-04T08:06:12;102721.19;;;9.47;100.00
44765;BME280;30484;52.382;5.260;2023-03-04T08:08:41;102727.72;;;9.26;100.00
44765;BME280;30484;52.382;5.260;2023-03-04T08:11:11;102734.38;;;9.58;100.00
44765;BME280;30484;52.382;5.260;2023-03-04T08:13:41;102737.94;;;9.57;100.00
44765;BME280;30484;52.382;5.260;2023-03-04T08:16:11;102737.34;;;9.36;100.00
44765;BME280;30484;52.382;5.260;2023-03-04T08:18:41;102743.47;;;9.43;100.00
44765;BME280;30484;52.382;5.260;2023-03-04T08:21:10;102743.75;;;9.24;100.00
44765;BME280;30484;52.382;5.260;2023-03-04T08:23:39;102750.38;;;9.58;100.00
44765;BME280;30484;52.382;5.260;2023-03-04T08:26:11;102745.19;;;9.48;100.00
44765;BME280;30484;52.382;5.260;2023-03-04T08:28:41;102747.34;;;9.81;100.00
44765;BME280;30484;52.382;5.260;2023-03-04T08:31:09;102751.34;;;9.54;100.00
44765;BME280;30484;52.382;5.260;2023-03-04T08:33:41;102747.84;;;10.03;100.00
44765;BME280;30484;52.382;5.260;2023-03-04T08:36:09;102739.13;;;9.93;100.00
44765;BME280;30484;52.382;5.260;2023-03-04T08:38:39;102750.09;;;9.76;100.00
44765;BME280;30484;52.382;5.260;2023-03-04T08:41:08;102739.88;;;10.01;100.00
44765;BME280;30484;52.382;5.260;2023-03-04T08:43:37;102748.00;;;10.45;100.00
44765;BME280;30484;52.382;5.260;2023-03-04T08:46:07;102737.28;;;9.97;100.00
44765;BME280;30484;52.382;5.260;2023-03-04T08:48:36;102747.53;;;10.20;100.00
44765;BME280;30484;52.382;5.260;2023-03-04T08:51:12;102747.19;;;10.43;100.00
44765;BME280;30484;52.382;5.260;2023-03-04T08:53:42;102741.03;;;9.87;100.00
44765;BME280;30484;52.382;5.260;2023-03-04T08:56:12;102744.44;;;9.95;100.00
44765;BME280;30484;52.382;5.260;2023-03-04T08:58:42;102750.56;;;10.51;100.00
44765;BME280;30484;52.382;5.260;2023-03-04T09:01:14;102754.34;;;10.85;100.00
44765;BME280;30484;52.382;5.260;2023-03-04T09:03:43;102742.75;;;10.84;100.00
44765;BME280;30484;52.382;5.260;2023-03-04T09:06:13;102737.78;;;11.10;100.00
44765;BME280;30484;52.382;5.260;2023-03-04T09:08:43;102732.03;;;10.87;100.00
44765;BME280;30484;52.382;5.260;2023-03-04T09:11:12;102738.03;;;10.99;100.00
44765;BME280;30484;52.382;5.260;2023-03-04T09:13:40;102740.44;;;11.10;100.00
44765;BME280;30484;52.382;5.260;2023-03-04T09:16:14;102722.91;;;11.35;100.00
44765;BME280;30484;52.382;5.260;2023-03-04T09:18:43;102721.41;;;11.61;100.00
44765;BME280;30484;52.382;5.260;2023-03-04T09:21:12;102722.84;;;11.38;100.00
44765;BME280;30484;52.382;5.260;2023-03-04T09:23:40;102729.38;;;11.64;100.00
44765;BME280;30484;52.382;5.260;2023-03-04T09:26:17;102725.75;;;11.67;100.00
44765;BME280;30484;52.382;5.260;2023-03-04T09:28:49;102725.19;;;11.52;100.00
44765;BME280;30484;52.382;5.260;2023-03-04T09:31:19;102733.22;;;11.52;100.00
44765;BME280;30484;52.382;5.260;2023-03-04T09:33:48;102728.56;;;11.98;100.00
44765;BME280;30484;52.382;5.260;2023-03-04T09:36:17;102724.66;;;11.74;100.00
44765;BME280;30484;52.382;5.260;2023-03-04T09:38:46;102729.75;;;11.85;100.00
44765;BME280;30484;52.382;5.260;2023-03-04T09:41:17;102730.81;;;11.79;100.00
44765;BME280;30484;52.382;5.260;2023-03-04T09:43:47;102725.59;;;12.09;100.00
44765;BME280;30484;52.382;5.260;2023-03-04T09:46:22;102713.28;;;12.02;100.00
44765;BME280;30484;52.382;5.260;2023-03-04T09:48:54;102716.81;;;12.37;100.00
44765;BME280;30484;52.382;5.260;2023-03-04T09:51:35;102705.94;;;12.43;100.00
44765;BME280;30484;52.382;5.260;2023-03-04T09:54:10;102703.19;;;12.45;100.00
44765;BME280;30484;52.382;5.260;2023-03-04T09:56:42;102703.50;;;12.65;100.00
44765;BME280;30484;52.382;5.260;2023-03-04T10:02:38;102703.00;;;12.19;100.00
44765;BME280;30484;52.382;5.260;2023-03-04T10:05:11;102696.97;;;12.42;100.00
44765;BME280;30484;52.382;5.260;2023-03-04T10:07:47;102702.09;;;12.52;100.00
44765;BME280;30484;52.382;5.260;2023-03-04T10:10:23;102699.47;;;13.10;100.00
44765;BME280;30484;52.382;5.260;2023-03-04T10:12:53;102688.47;;;12.59;100.00
44765;BME280;30484;52.382;5.260;2023-03-04T10:15:26;102700.63;;;13.29;100.00
44765;BME280;30484;52.382;5.260;2023-03-04T10:18:02;102692.47;;;13.61;100.00
44765;BME280;30484;52.382;5.260;2023-03-04T10:20:46;102689.47;;;13.15;100.00
44765;BME280;30484;52.382;5.260;2023-03-04T10:23:22;102694.75;;;13.18;100.00
44765;BME280;30484;52.382;5.260;2023-03-04T10:25:51;102686.69;;;12.29;100.00
44765;BME280;30484;52.382;5.260;2023-03-04T10:28:23;102697.69;;;12.81;100.00
44765;BME280;30484;52.382;5.260;2023-03-04T10:31:01;102693.28;;;12.78;100.00
44765;BME280;30484;52.382;5.260;2023-03-04T10:33:39;102706.94;;;12.39;100.00
44765;BME280;30484;52.382;5.260;2023-03-04T10:38:59;102721.28;;;11.67;100.00
44765;BME280;30484;52.382;5.260;2023-03-04T10:41:29;102712.66;;;11.90;100.00
44765;BME280;30484;52.382;5.260;2023-03-04T10:44:03;102724.59;;;11.77;100.00
44765;BME280;30484;52.382;5.260;2023-03-04T10:46:32;102707.94;;;12.02;100.00
44765;BME280;30484;52.382;5.260;2023-03-04T10:49:02;102706.56;;;11.84;100.00
44765;BME280;30484;52.382;5.260;2023-03-04T10:51:31;102717.19;;;12.23;100.00
44765;BME280;30484;52.382;5.260;2023-03-04T10:54:06;102715.44;;;12.22;100.00
44765;BME280;30484;52.382;5.260;2023-03-04T10:56:37;102707.13;;;12.33;100.00
44765;BME280;30484;52.382;5.260;2023-03-04T10:59:42;102709.34;;;12.48;100.00
44765;BME280;30484;52.382;5.260;2023-03-04T11:02:19;102713.09;;;12.72;100.00
44765;BME280;30484;52.382;5.260;2023-03-04T11:04:52;102709.84;;;12.30;100.00
44765;BME280;30484;52.382;5.260;2023-03-04T11:07:22;102690.31;;;12.57;100.00
44765;BME280;30484;52.382;5.260;2023-03-04T11:09:51;102696.50;;;13.19;100.00
44765;BME280;30484;52.382;5.260;2023-03-04T11:12:32;102693.66;;;12.95;100.00
44765;BME280;30484;52.382;5.260;2023-03-04T11:15:01;102695.00;;;13.39;100.00
44765;BME280;30484;52.382;5.260;2023-03-04T11:17:40;102682.06;;;14.04;100.00
44765;BME280;30484;52.382;5.260;2023-03-04T11:20:26;102690.56;;;14.42;100.00
44765;BME280;30484;52.382;5.260;2023-03-04T11:22:56;102687.69;;;13.71;100.00
44765;BME280;30484;52.382;5.260;2023-03-04T11:25:33;102682.19;;;14.01;100.00
44765;BME280;30484;52.382;5.260;2023-03-04T11:28:03;102684.47;;;13.86;100.00
44765;BME280;30484;52.382;5.260;2023-03-04T11:30:41;102684.53;;;13.58;100.00
44765;BME280;30484;52.382;5.260;2023-03-04T11:33:24;102692.66;;;13.56;100.00
44765;BME280;30484;52.382;5.260;2023-03-04T11:36:03;102683.41;;;13.38;100.00
44765;BME280;30484;52.382;5.260;2023-03-04T11:38:35;102670.41;;;13.24;100.00
44765;BME280;30484;52.382;5.260;2023-03-04T11:41:09;102681.03;;;13.27;100.00
44765;BME280;30484;52.382;5.260;2023-03-04T11:43:42;102683.34;;;13.40;100.00
44765;BME280;30484;52.382;5.260;2023-03-04T11:52:53;102684.06;;;13.72;100.00
44765;BME280;30484;52.382;5.260;2023-03-04T11:55:33;102676.34;;;13.06;100.00
44765;BME280;30484;52.382;5.260;2023-03-04T11:58:16;102673.19;;;13.50;100.00
44765;BME280;30484;52.382;5.260;2023-03-04T12:00:47;102672.38;;;14.00;100.00
44765;BME280;30484;52.382;5.260;2023-03-04T12:06:11;102663.72;;;14.40;100.00
44765;BME280;30484;52.382;5.260;2023-03-04T12:09:00;102664.44;;;14.93;100.00
44765;BME280;30484;52.382;5.260;2023-03-04T12:11:37;102664.25;;;14.50;100.00
44765;BME280;30484;52.382;5.260;2023-03-04T12:14:18;102661.91;;;14.41;100.00
44765;BME280;30484;52.382;5.260;2023-03-04T12:17:09;102668.94;;;14.45;100.00
44765;BME280;30484;52.382;5.260;2023-03-04T12:19:50;102669.91;;;14.19;100.00
44765;BME280;30484;52.382;5.260;2023-03-04T12:22:29;102670.03;;;13.37;100.00
44765;BME280;30484;52.382;5.260;2023-03-04T12:25:34;102670.03;;;13.37;100.00
44765;BME280;30484;52.382;5.260;2023-03-04T12:28:22;102670.06;;;13.62;100.00
44765;BME280;30484;52.382;5.260;2023-03-04T12:31:11;102666.47;;;13.06;100.00
44765;BME280;30484;52.382;5.260;2023-03-04T12:33:53;102664.22;;;12.92;100.00
44765;BME280;30484;52.382;5.260;2023-03-04T12:36:29;102654.13;;;13.01;100.00
44765;BME280;30484;52.382;5.260;2023-03-04T12:38:59;102652.53;;;13.23;100.00
44765;BME280;30484;52.382;5.260;2023-03-04T12:41:40;102657.84;;;12.97;100.00
44765;BME280;30484;52.382;5.260;2023-03-04T12:44:15;102660.41;;;12.71;100.00
44765;BME280;30484;52.382;5.260;2023-03-04T12:47:05;102641.16;;;12.87;100.00
44765;BME280;30484;52.382;5.260;2023-03-04T12:49:50;102642.75;;;12.92;100.00
44765;BME280;30484;52.382;5.260;2023-03-04T12:52:30;102646.09;;;13.01;100.00
44765;BME280;30484;52.382;5.260;2023-03-04T12:55:02;102644.25;;;13.29;100.00
44765;BME280;30484;52.382;5.260;2023-03-04T12:57:34;102642.88;;;13.46;100.00
44765;BME280;30484;52.382;5.260;2023-03-04T13:00:08;102632.66;;;13.29;100.00
44765;BME280;30484;52.382;5.260;2023-03-04T13:02:47;102630.94;;;13.55;100.00
44765;BME280;30484;52.382;5.260;2023-03-04T13:05:32;102631.53;;;13.08;100.00
44765;BME280;30484;52.382;5.260;2023-03-04T13:08:10;102634.75;;;13.19;100.00
44765;BME280;30484;52.382;5.260;2023-03-04T13:10:42;102635.16;;;13.35;100.00
44765;BME280;30484;52.382;5.260;2023-03-04T13:13:37;102619.75;;;12.85;100.00
44765;BME280;30484;52.382;5.260;2023-03-04T13:16:22;102622.69;;;13.06;100.00
44765;BME280;30484;52.382;5.260;2023-03-04T13:18:55;102622.34;;;12.88;100.00
44765;BME280;30484;52.382;5.260;2023-03-04T13:21:25;102610.94;;;12.82;100.00
44765;BME280;30484;52.382;5.260;2023-03-04T13:23:54;102607.16;;;13.16;100.00